createdAt,value
2018-07-23T03:17:29.711Z,100865.06
2018-07-23T03:20:00.785Z,100870.70
2018-07-23T03:22:31.750Z,100870.00
2018-07-23T03:25:02.803Z,100873.52
2018-07-23T03:27:33.702Z,100879.79
2018-07-23T03:30:05.032Z,100882.33
2018-07-23T03:32:36.341Z,100879.19
2018-07-23T03:35:07.400Z,100884.09
2018-07-23T03:37:38.606Z,100884.47
2018-07-23T03:40:09.705Z,100883.14
2018-07-23T03:42:52.258Z,100883.95
2018-07-23T03:45:23.608Z,100888.09
2018-07-23T03:47:55.186Z,100881.34
2018-07-23T03:50:26.326Z,100880.38
2018-07-23T03:52:57.594Z,100884.99
2018-07-23T03:55:28.464Z,100889.09
2018-07-23T03:57:59.749Z,100891.67
2018-07-23T04:00:30.698Z,100889.28
2018-07-23T04:03:01.672Z,100900.35
2018-07-23T04:05:32.672Z,100898.54
2018-07-23T04:08:03.766Z,100909.02
2018-07-23T04:10:34.783Z,100901.46
2018-07-23T04:13:05.742Z,100915.34
2018-07-23T04:15:36.577Z,100918.59
2018-07-23T04:18:07.634Z,100908.33
2018-07-23T04:20:38.564Z,100905.30
2018-07-23T04:23:09.570Z,100908.33
2018-07-23T04:25:45.621Z,100912.23
2018-07-23T04:28:16.906Z,100911.72
2018-07-23T04:30:47.961Z,100923.68
2018-07-23T04:33:18.891Z,100910.66
2018-07-23T04:35:49.960Z,100914.52
2018-07-23T04:38:27.114Z,100914.42
2018-07-23T04:40:59.393Z,100918.55
2018-07-23T04:43:30.319Z,100924.60
2018-07-23T04:46:01.330Z,100925.70
2018-07-23T04:48:32.319Z,100925.86
2018-07-23T04:51:03.695Z,100924.52
2018-07-23T04:53:34.904Z,100929.33
2018-07-23T04:56:06.806Z,100929.39
2018-07-23T04:58:37.497Z,100930.94
2018-07-23T05:01:08.719Z,100931.17
2018-07-23T05:03:39.608Z,100927.66
2018-07-23T05:06:11.265Z,100929.21
2018-07-23T05:08:42.443Z,100933.68
2018-07-23T05:11:13.685Z,100937.81
2018-07-23T05:13:44.729Z,100931.50
2018-07-23T05:16:15.751Z,100930.17
2018-07-23T05:18:46.683Z,100928.55
2018-07-23T05:21:17.679Z,100934.08
2018-07-23T05:23:48.642Z,100928.99
2018-07-23T05:26:19.776Z,100939.22
2018-07-23T05:28:50.800Z,100933.28
2018-07-23T05:31:21.712Z,100935.82
2018-07-23T05:33:52.639Z,100931.36
2018-07-23T05:36:23.661Z,100934.02
2018-07-23T05:38:54.734Z,100932.83
2018-07-23T05:41:25.996Z,100932.49
2018-07-23T05:43:57.326Z,100934.16
2018-07-23T05:46:28.198Z,100940.21
2018-07-23T05:48:59.144Z,100945.52
2018-07-23T05:51:30.304Z,100949.73
2018-07-23T05:54:01.391Z,100947.98
2018-07-23T05:56:32.452Z,100938.72
2018-07-23T05:59:03.398Z,100945.92
2018-07-23T06:01:34.630Z,100940.02
2018-07-23T06:04:05.746Z,100934.53
2018-07-23T06:06:36.701Z,100938.73
2018-07-23T06:09:10.106Z,100945.72
2018-07-23T06:11:41.148Z,100942.27
2018-07-23T06:14:12.153Z,100944.78
2018-07-23T06:16:43.212Z,100944.22
2018-07-23T06:19:14.374Z,100945.72
2018-07-23T06:21:45.702Z,100949.45
2018-07-23T06:24:16.654Z,100940.36
2018-07-23T06:26:47.613Z,100949.02
2018-07-23T06:29:19.530Z,100945.73
2018-07-23T06:31:50.462Z,100940.52
2018-07-23T06:34:21.406Z,100938.11
2018-07-23T06:37:03.000Z,100942.84
2018-07-23T06:39:34.451Z,100937.19
2018-07-23T06:42:05.400Z,100941.39
2018-07-23T06:44:36.392Z,100944.86
2018-07-23T06:47:07.818Z,100938.83
2018-07-23T06:49:38.813Z,100941.72
2018-07-23T06:52:11.661Z,100932.12
2018-07-23T06:54:42.746Z,100942.17
2018-07-23T06:57:13.793Z,100947.86
2018-07-23T06:59:44.798Z,100940.11
2018-07-23T07:02:21.327Z,100936.23
2018-07-23T07:04:56.834Z,100936.62
2018-07-23T07:07:27.785Z,100935.89
2018-07-23T07:09:58.893Z,100942.25
2018-07-23T07:12:30.505Z,100940.14
2018-07-23T07:15:01.725Z,100937.86
2018-07-23T07:17:32.603Z,100949.73
2018-07-23T07:20:03.506Z,100947.69
2018-07-23T07:22:34.403Z,100955.13
2018-07-23T07:25:05.295Z,100945.86
2018-07-23T07:27:39.218Z,100948.32
2018-07-23T07:30:12.593Z,100947.94
2018-07-23T07:32:43.714Z,100944.66
2018-07-23T07:35:19.426Z,100945.53
2018-07-23T07:37:56.433Z,100945.98
2018-07-23T07:40:32.100Z,100946.36
2018-07-23T07:43:03.108Z,100945.53
2018-07-23T07:45:34.282Z,100947.93
2018-07-23T07:48:05.664Z,100944.72
2018-07-23T07:50:36.669Z,100941.38
2018-07-23T07:53:07.699Z,100938.47
2018-07-23T07:56:01.384Z,100935.30
2018-07-23T08:04:54.563Z,100931.30
2018-07-23T08:07:55.888Z,100929.17
2018-07-23T08:11:36.610Z,100930.02
2018-07-23T08:17:29.884Z,100931.10
2018-07-23T08:20:10.070Z,100931.86
2018-07-23T08:22:52.216Z,100926.13
2018-07-23T08:25:44.299Z,100936.88
2018-07-23T08:28:22.969Z,100934.44
2018-07-23T08:40:43.819Z,100931.34
2018-07-23T08:46:25.550Z,100938.90
2018-07-23T08:48:58.778Z,100935.70
2018-07-23T08:51:30.608Z,100936.24
2018-07-23T08:54:05.677Z,100940.17
2018-07-23T08:56:36.922Z,100935.98
2018-07-23T08:59:08.718Z,100943.02
2018-07-23T09:01:44.070Z,100934.98
2018-07-23T09:04:15.796Z,100932.71
2018-07-23T09:06:47.362Z,100936.92
2018-07-23T09:09:18.309Z,100929.87
2018-07-23T09:11:49.232Z,100931.42
2018-07-23T09:14:20.257Z,100933.95
2018-07-23T09:16:51.242Z,100940.70
2018-07-23T09:19:22.147Z,100909.73
2018-07-23T09:21:53.618Z,100940.98
2018-07-23T09:24:24.529Z,100934.03
2018-07-23T09:26:58.537Z,100937.91
2018-07-23T09:29:30.474Z,100938.29
2018-07-23T09:32:04.918Z,100939.55
2018-07-23T09:34:38.282Z,100938.62
2018-07-23T09:37:12.443Z,100948.81
2018-07-23T09:39:44.012Z,100935.94
2018-07-23T09:42:15.306Z,100944.05
2018-07-23T09:44:46.315Z,100936.20
2018-07-23T09:47:20.872Z,100940.89
2018-07-23T09:49:53.939Z,100945.27
2018-07-23T09:52:25.580Z,100941.72
2018-07-23T09:54:56.467Z,100940.34
2018-07-23T09:57:27.487Z,100937.98
2018-07-23T10:00:02.398Z,100922.60
2018-07-23T10:06:42.157Z,100934.42
2018-07-23T10:09:23.377Z,100935.03
2018-07-23T10:12:09.961Z,100931.77
2018-07-23T10:14:45.353Z,100939.41
2018-07-23T10:17:17.151Z,100927.60
2018-07-23T10:19:47.982Z,100924.23
2018-07-23T10:22:27.165Z,100924.03
2018-07-23T10:24:58.073Z,100925.73
2018-07-23T10:27:29.174Z,100925.02
2018-07-23T10:30:11.930Z,100932.17
2018-07-23T10:32:47.584Z,100923.89
2018-07-23T10:35:19.141Z,100925.03
2018-07-23T10:37:50.020Z,100921.05
2018-07-23T10:40:21.086Z,100920.48
2018-07-23T10:42:51.981Z,100927.04
2018-07-23T10:45:25.532Z,100923.03
2018-07-23T10:47:57.074Z,100916.76
2018-07-23T10:50:28.334Z,100926.59
2018-07-23T10:52:59.569Z,100919.66
2018-07-23T10:55:34.720Z,100917.81
2018-07-23T10:58:05.793Z,100913.05
2018-07-23T11:00:36.722Z,100910.26
2018-07-23T11:03:08.057Z,100915.50
2018-07-23T11:05:39.034Z,100907.20
2018-07-23T11:08:10.062Z,100909.94
2018-07-23T11:10:41.073Z,100897.53
2018-07-23T11:13:11.953Z,100897.52
2018-07-23T11:18:36.960Z,100891.77
2018-07-23T11:21:08.307Z,100890.89
2018-07-23T11:23:39.302Z,100896.22
2018-07-23T11:26:10.281Z,100898.90
2018-07-23T11:28:41.078Z,100898.28
2018-07-23T11:31:12.325Z,100903.39
2018-07-23T11:33:43.276Z,100902.81
2018-07-23T11:36:18.637Z,100900.20
2018-07-23T11:38:49.721Z,100906.17
2018-07-23T11:41:26.098Z,100904.10
2018-07-23T11:44:01.433Z,100909.41
2018-07-23T11:46:34.089Z,100901.20
2018-07-23T11:49:06.119Z,100902.52
2018-07-23T11:51:38.157Z,100900.86
2018-07-23T11:54:09.628Z,100903.26
2018-07-23T11:56:40.908Z,100901.38
2018-07-23T11:59:12.145Z,100895.81
2018-07-23T12:01:43.078Z,100896.44
2018-07-23T12:04:14.958Z,100894.40
2018-07-23T12:06:46.045Z,100897.22
2018-07-23T12:09:17.003Z,100894.72
2018-07-23T12:11:50.050Z,100888.97
2018-07-23T12:14:22.827Z,100889.80
2018-07-23T12:17:00.519Z,100892.57
2018-07-23T12:19:34.328Z,100882.63
2018-07-23T12:22:05.281Z,100885.91
2018-07-23T12:24:39.102Z,100888.25
2018-07-23T12:27:11.821Z,100887.57
2018-07-23T12:29:42.809Z,100891.41
2018-07-23T12:32:18.011Z,100890.16
2018-07-23T12:34:51.564Z,100882.64
2018-07-23T12:37:25.752Z,100866.58
2018-07-23T12:39:57.569Z,100867.02
2018-07-23T12:42:31.380Z,100872.37
2018-07-23T12:45:04.277Z,100874.00
2018-07-23T12:47:43.428Z,100863.05
2018-07-23T12:50:14.408Z,100867.41
2018-07-23T12:52:46.337Z,100864.25
2018-07-23T12:55:17.776Z,100861.09
2018-07-23T12:57:48.726Z,100864.77
2018-07-23T13:00:20.013Z,100871.25
2018-07-23T13:02:50.907Z,100867.04
2018-07-23T13:05:25.792Z,100866.58
2018-07-23T13:07:58.202Z,100865.86
2018-07-23T13:10:34.468Z,100861.07
2018-07-23T13:13:06.897Z,100866.55
2018-07-23T13:15:39.148Z,100854.97
2018-07-23T13:18:16.162Z,100860.66
2018-07-23T13:20:47.278Z,100863.00
2018-07-23T13:23:18.336Z,100858.56
2018-07-23T13:25:51.988Z,100859.33
2018-07-23T13:28:23.788Z,100851.20
2018-07-23T13:30:55.649Z,100850.20
2018-07-23T13:33:26.747Z,100848.69
2018-07-23T13:35:58.659Z,100851.61
2018-07-23T13:38:29.909Z,100854.27
2018-07-23T13:41:01.029Z,100852.00
2018-07-23T13:43:41.539Z,100845.27
2018-07-23T13:46:23.235Z,100841.79
2018-07-23T13:48:54.468Z,100848.89
2018-07-23T13:51:25.885Z,100845.04
2018-07-23T13:53:56.928Z,100839.05
2018-07-23T13:56:34.342Z,100839.94
2018-07-23T13:59:05.344Z,100838.92
2018-07-23T14:01:36.612Z,100840.84
2018-07-23T14:04:07.692Z,100839.70
2018-07-23T14:06:38.667Z,100834.70
2018-07-23T14:09:11.913Z,100832.58
2018-07-23T14:11:43.248Z,100833.59
2018-07-23T14:14:14.201Z,100833.95
2018-07-23T14:16:45.111Z,100820.08
2018-07-23T14:19:18.595Z,100823.20
2018-07-23T14:21:49.606Z,100825.84
2018-07-23T14:24:20.519Z,100812.34
2018-07-23T14:26:51.557Z,100812.55
2018-07-23T14:29:22.970Z,100825.12
2018-07-23T14:31:54.095Z,100816.69
2018-07-23T14:34:24.979Z,100816.41
2018-07-23T14:36:56.066Z,100816.00
2018-07-23T14:39:26.978Z,100820.50
2018-07-23T14:41:58.101Z,100817.92
2018-07-23T14:44:29.274Z,100815.87
2018-07-23T14:47:02.847Z,100810.15
2018-07-23T14:49:33.724Z,100810.44
2018-07-23T14:52:06.754Z,100808.04
2018-07-23T14:54:37.687Z,100806.64
2018-07-23T14:57:09.063Z,100798.69
2018-07-23T14:59:40.060Z,100805.34
2018-07-23T15:02:11.024Z,100801.25
2018-07-23T15:04:41.960Z,100794.85
2018-07-23T15:07:12.879Z,100796.93
2018-07-23T15:09:44.076Z,100792.98
2018-07-23T15:12:15.767Z,100796.45
2018-07-23T15:14:46.677Z,100792.08
2018-07-23T15:17:17.985Z,100794.23
2018-07-23T15:19:49.603Z,100791.62
2018-07-23T15:22:20.976Z,100796.63
2018-07-23T15:24:51.896Z,100800.28
2018-07-23T15:27:22.800Z,100798.77
2018-07-23T15:29:53.796Z,100798.77
2018-07-23T15:32:24.734Z,100795.95
2018-07-23T15:35:01.281Z,100799.19
2018-07-23T15:37:32.241Z,100796.11
2018-07-23T15:40:03.275Z,100803.11
2018-07-23T15:42:34.229Z,100793.50
2018-07-23T15:45:05.308Z,100790.08
2018-07-23T15:47:36.581Z,100782.84
2018-07-23T15:50:07.474Z,100785.98
2018-07-23T15:52:39.136Z,100794.20
2018-07-23T15:55:10.562Z,100789.31
2018-07-23T15:57:41.479Z,100790.98
2018-07-23T16:00:12.586Z,100789.39
2018-07-23T16:02:43.557Z,100792.45
2018-07-23T16:05:14.546Z,100792.06
2018-07-23T16:07:45.455Z,100784.58
2018-07-23T16:10:16.377Z,100782.63
2018-07-23T16:12:47.368Z,100780.14
2018-07-23T16:15:18.452Z,100782.00
2018-07-23T16:17:49.742Z,100774.92
2018-07-23T16:20:22.875Z,100772.42
2018-07-23T16:22:54.182Z,100777.31
2018-07-23T16:25:25.073Z,100765.30
2018-07-23T16:27:55.975Z,100765.18
2018-07-23T16:30:27.225Z,100774.28
2018-07-23T16:32:58.171Z,100773.14
2018-07-23T16:35:29.467Z,100771.13
2018-07-23T16:38:00.755Z,100773.80
2018-07-23T16:40:32.042Z,100776.66
2018-07-23T16:43:02.927Z,100775.83
2018-07-23T16:45:33.784Z,100771.91
2018-07-23T16:50:58.866Z,100768.56
2018-07-23T16:53:29.782Z,100774.63
2018-07-23T16:56:02.285Z,100773.14
2018-07-23T16:58:33.584Z,100769.52
2018-07-23T17:01:05.118Z,100767.55
2018-07-23T17:03:36.237Z,100771.59
2018-07-23T17:06:07.752Z,100766.58
2018-07-23T17:08:39.591Z,100767.89
2018-07-23T17:11:11.362Z,100757.28
2018-07-23T17:13:42.560Z,100768.52
2018-07-23T17:16:13.756Z,100761.53
2018-07-23T17:18:44.661Z,100766.34
2018-07-23T17:21:15.576Z,100766.79
2018-07-23T17:23:46.688Z,100760.23
2018-07-23T17:26:17.909Z,100762.87
2018-07-23T17:28:49.186Z,100765.11
2018-07-23T17:31:22.813Z,100761.16
2018-07-23T17:33:54.085Z,100765.45
2018-07-23T17:36:24.992Z,100765.72
2018-07-23T17:39:02.298Z,100768.46
2018-07-23T17:41:33.237Z,100765.77
2018-07-23T17:44:06.012Z,100772.80
2018-07-23T17:46:37.285Z,100775.45
2018-07-23T17:49:08.247Z,100777.47
2018-07-23T17:51:39.236Z,100776.80
2018-07-23T17:54:10.309Z,100777.47
2018-07-23T17:56:41.805Z,100780.00
2018-07-23T17:59:12.734Z,100774.23
2018-07-23T18:01:43.767Z,100776.55
2018-07-23T18:04:15.966Z,100778.40
2018-07-23T18:06:55.764Z,100773.09
2018-07-23T18:09:26.910Z,100774.36
2018-07-23T18:11:57.810Z,100776.63
2018-07-23T18:14:29.278Z,100737.27
2018-07-23T18:17:00.204Z,100777.14
2018-07-23T18:19:31.222Z,100782.73
2018-07-23T18:22:02.256Z,100775.15
2018-07-23T18:24:33.166Z,100774.05
2018-07-23T18:27:08.089Z,100773.00
2018-07-23T18:29:39.586Z,100771.48
2018-07-23T18:32:12.263Z,100770.81
2018-07-23T18:34:43.387Z,100769.21
2018-07-23T18:37:16.172Z,100774.06
2018-07-23T18:39:47.239Z,100770.98
2018-07-23T18:42:23.146Z,100773.54
2018-07-23T18:44:54.065Z,100770.95
2018-07-23T18:47:25.248Z,100767.28
2018-07-23T18:49:59.051Z,100777.55
2018-07-23T18:52:31.268Z,100770.28
2018-07-23T18:55:03.821Z,100766.24
2018-07-23T18:57:34.708Z,100770.75
2018-07-23T19:00:06.933Z,100775.26
2018-07-23T19:02:37.940Z,100776.27
2018-07-23T19:05:09.560Z,100775.96
2018-07-23T19:07:41.133Z,100772.80
2018-07-23T19:10:19.678Z,100776.88
2018-07-23T19:12:50.884Z,100773.05
2018-07-23T19:15:21.858Z,100778.12
2018-07-23T19:17:52.434Z,100777.14
2018-07-23T19:20:32.708Z,100776.88
2018-07-23T19:23:05.554Z,100783.27
2018-07-23T19:25:36.636Z,100787.33
2018-07-23T19:28:08.217Z,100784.06
2018-07-23T19:30:39.283Z,100790.17
2018-07-23T19:33:13.677Z,100801.63
2018-07-23T19:35:45.718Z,100797.02
2018-07-23T19:38:16.807Z,100803.81
2018-07-23T19:43:34.712Z,100806.14
2018-07-23T19:46:06.303Z,100812.05
2018-07-23T19:48:38.079Z,100814.95
2018-07-23T19:51:10.659Z,100815.53
2018-07-23T19:53:42.097Z,100808.88
2018-07-23T19:56:14.575Z,100809.87
2018-07-23T19:58:46.929Z,100812.77
2018-07-23T20:01:19.531Z,100815.80
2018-07-23T20:03:50.958Z,100810.16
2018-07-23T20:06:27.543Z,100816.37
2018-07-23T20:08:59.384Z,100813.77
2018-07-23T20:11:30.807Z,100817.19
2018-07-23T20:14:02.807Z,100811.53
2018-07-23T20:16:34.248Z,100814.42
2018-07-23T20:19:05.251Z,100811.42
2018-07-23T20:21:36.166Z,100812.27
2018-07-23T20:24:07.400Z,100804.41
2018-07-23T20:26:38.334Z,100808.09
2018-07-23T20:29:09.678Z,100805.64
2018-07-23T20:31:40.699Z,100805.81
2018-07-23T20:34:11.713Z,100812.20
2018-07-23T20:36:42.626Z,100814.77
2018-07-23T20:39:13.563Z,100812.92
2018-07-23T20:41:44.691Z,100815.80
2018-07-23T20:44:15.639Z,100814.45
2018-07-23T20:46:46.745Z,100814.98
2018-07-23T20:49:17.676Z,100814.00
2018-07-23T20:51:48.613Z,100820.86
2018-07-23T20:54:19.508Z,100812.48
2018-07-23T20:56:56.194Z,100808.77
2018-07-23T20:59:28.894Z,100809.45
2018-07-23T21:02:01.030Z,100811.81
2018-07-23T21:04:32.162Z,100804.83
2018-07-23T21:07:03.117Z,100812.34
2018-07-23T21:09:34.108Z,100810.86
2018-07-23T21:12:05.005Z,100809.69
2018-07-23T21:14:36.619Z,100809.51
2018-07-23T21:17:07.714Z,100809.86
2018-07-23T21:19:38.901Z,100817.21
2018-07-23T21:22:12.345Z,100814.19
2018-07-23T21:24:44.405Z,100815.20
2018-07-23T21:27:31.306Z,100815.20
2018-07-23T21:30:06.353Z,100820.08
2018-07-23T21:32:37.397Z,100826.26
2018-07-23T21:35:08.514Z,100820.72
2018-07-23T21:37:39.786Z,100833.47
2018-07-23T21:40:11.588Z,100830.11
2018-07-23T21:42:42.602Z,100839.66
2018-07-23T21:45:13.682Z,100832.95
2018-07-23T21:47:45.381Z,100828.77
2018-07-23T21:50:16.346Z,100829.94
2018-07-23T21:52:47.548Z,100832.30
2018-07-23T21:55:18.913Z,100825.09
2018-07-23T21:57:50.169Z,100830.95
2018-07-23T22:00:21.180Z,100831.60
2018-07-23T22:02:56.034Z,100833.13
2018-07-23T22:05:27.522Z,100825.27
2018-07-23T22:07:58.495Z,100827.10
2018-07-23T22:10:29.811Z,100824.58
2018-07-23T22:13:00.757Z,100824.03
2018-07-23T22:15:31.893Z,100820.83
2018-07-23T22:18:04.054Z,100832.32
2018-07-23T22:20:35.235Z,100834.59
2018-07-23T22:23:06.781Z,100833.93
2018-07-23T22:25:38.087Z,100835.50
2018-07-23T22:28:09.388Z,100827.80
2018-07-23T22:30:40.242Z,100834.83
2018-07-23T22:33:11.167Z,100828.81
2018-07-23T22:35:52.677Z,100825.78
2018-07-23T22:38:25.166Z,100826.27
2018-07-23T22:40:59.754Z,100825.12
2018-07-23T22:46:52.740Z,100829.56
2018-07-23T22:49:24.261Z,100827.02
2018-07-23T22:51:56.015Z,100831.97
2018-07-23T22:54:28.549Z,100825.20
2018-07-23T22:57:00.015Z,100825.00
2018-07-23T22:59:30.885Z,100828.95
2018-07-23T23:02:03.464Z,100822.02
2018-07-23T23:04:34.426Z,100829.02
2018-07-23T23:07:05.851Z,100819.66
2018-07-23T23:09:38.442Z,100821.79
2018-07-23T23:12:10.193Z,100826.59
2018-07-23T23:14:54.005Z,100824.20
2018-07-23T23:17:25.873Z,100821.95
2018-07-23T23:19:56.783Z,100824.55
2018-07-23T23:22:27.695Z,100821.82
2018-07-23T23:24:58.353Z,100814.72
2018-07-23T23:27:29.331Z,100824.57
2018-07-23T23:30:00.736Z,100820.90
2018-07-23T23:32:31.531Z,100820.37
2018-07-23T23:35:02.841Z,100817.03
2018-07-23T23:37:34.082Z,100822.74
2018-07-23T23:40:05.089Z,100818.85
2018-07-23T23:42:35.979Z,100817.44
2018-07-23T23:45:07.206Z,100816.31
2018-07-23T23:47:38.138Z,100816.23
2018-07-23T23:50:09.052Z,100820.23
2018-07-23T23:52:39.983Z,100819.25
2018-07-23T23:55:11.243Z,100823.45
2018-07-23T23:57:42.283Z,100814.77
